sensor_id;sensor_type;location;lat;lon;timestamp;pressure;altitude;pressure_sealevel;temperature;humidity
73151;BME280;61354;50.758;6.106;2023-04-24T00:01:14;97812.44;;;9.14;87.36
73151;BME280;61354;50.758;6.106;2023-04-24T00:03:40;97810.50;;;9.18;87.25
73151;BME280;61354;50.758;6.106;2023-04-24T00:06:06;97808.81;;;9.06;86.77
73151;BME280;61354;50.758;6.106;2023-04-24T00:08:34;97803.34;;;9.13;86.67
73151;BME280;61354;50.758;6.106;2023-04-24T00:11:00;97813.94;;;9.04;85.87
73151;BME280;61354;50.758;6.106;2023-04-24T00:13:25;97811.88;;;8.98;85.23
73151;BME280;61354;50.758;6.106;2023-04-24T00:15:53;97823.59;;;8.84;85.89
73151;BME280;61354;50.758;6.106;2023-04-24T00:18:19;97827.22;;;8.88;85.83
73151;BME280;61354;50.758;6.106;2023-04-24T00:20:45;97825.59;;;8.87;85.38
73151;BME280;61354;50.758;6.106;2023-04-24T00:23:12;97826.69;;;8.79;85.83
73151;BME280;61354;50.758;6.106;2023-04-24T00:25:38;97828.88;;;8.62;86.75
73151;BME280;61354;50.758;6.106;2023-04-24T00:28:04;97835.94;;;8.56;86.08
73151;BME280;61354;50.758;6.106;2023-04-24T00:30:29;97838.97;;;8.48;85.20
73151;BME280;61354;50.758;6.106;2023-04-24T00:32:55;97842.94;;;8.50;85.60
73151;BME280;61354;50.758;6.106;2023-04-24T00:35:20;97850.63;;;8.34;85.87
73151;BME280;61354;50.758;6.106;2023-04-24T00:37:46;97847.97;;;8.41;85.79
73151;BME280;61354;50.758;6.106;2023-04-24T00:40:12;97837.91;;;8.29;85.67
73151;BME280;61354;50.758;6.106;2023-04-24T00:42:39;97854.03;;;8.23;85.84
73151;BME280;61354;50.758;6.106;2023-04-24T00:45:06;97855.91;;;8.16;86.01
73151;BME280;61354;50.758;6.106;2023-04-24T00:47:33;97846.41;;;8.13;86.06
73151;BME280;61354;50.758;6.106;2023-04-24T00:50:04;97844.69;;;8.05;86.63
73151;BME280;61354;50.758;6.106;2023-04-24T00:52:30;97845.44;;;8.02;86.67
73151;BME280;61354;50.758;6.106;2023-04-24T00:54:58;97844.47;;;7.91;86.81
73151;BME280;61354;50.758;6.106;2023-04-24T00:57:24;97846.56;;;7.97;87.60
73151;BME280;61354;50.758;6.106;2023-04-24T00:59:51;97847.69;;;7.93;88.08
73151;BME280;61354;50.758;6.106;2023-04-24T01:02:17;97842.22;;;8.00;87.76
73151;BME280;61354;50.758;6.106;2023-04-24T01:04:43;97849.69;;;7.96;88.38
73151;BME280;61354;50.758;6.106;2023-04-24T01:07:09;97849.25;;;7.94;87.41
73151;BME280;61354;50.758;6.106;2023-04-24T01:09:38;97842.94;;;7.93;88.21
73151;BME280;61354;50.758;6.106;2023-04-24T01:12:06;97840.59;;;7.95;88.33
73151;BME280;61354;50.758;6.106;2023-04-24T01:14:32;97841.28;;;7.89;88.13
73151;BME280;61354;50.758;6.106;2023-04-24T01:16:58;97844.06;;;7.89;88.11
73151;BME280;61354;50.758;6.106;2023-04-24T01:19:24;97845.22;;;7.88;88.40
73151;BME280;61354;50.758;6.106;2023-04-24T01:21:51;97845.22;;;7.88;88.94
73151;BME280;61354;50.758;6.106;2023-04-24T01:24:19;97836.63;;;7.93;88.57
73151;BME280;61354;50.758;6.106;2023-04-24T01:26:45;97841.72;;;7.91;88.30
73151;BME280;61354;50.758;6.106;2023-04-24T01:29:11;97845.31;;;7.95;88.50
73151;BME280;61354;50.758;6.106;2023-04-24T01:31:38;97835.50;;;7.97;88.22
73151;BME280;61354;50.758;6.106;2023-04-24T01:34:05;97827.16;;;7.94;87.84
73151;BME280;61354;50.758;6.106;2023-04-24T01:36:32;97836.56;;;7.89;87.83
73151;BME280;61354;50.758;6.106;2023-04-24T01:38:58;97845.31;;;7.95;87.99
73151;BME280;61354;50.758;6.106;2023-04-24T01:41:24;97832.63;;;7.90;87.92
73151;BME280;61354;50.758;6.106;2023-04-24T01:43:50;97842.16;;;7.93;88.27
73151;BME280;61354;50.758;6.106;2023-04-24T01:46:16;97838.22;;;7.94;88.29
73151;BME280;61354;50.758;6.106;2023-04-24T01:48:41;97843.69;;;7.90;88.15
73151;BME280;61354;50.758;6.106;2023-04-24T01:51:07;97844.47;;;7.91;88.14
73151;BME280;61354;50.758;6.106;2023-04-24T01:53:32;97845.06;;;7.77;87.36
73151;BME280;61354;50.758;6.106;2023-04-24T01:55:58;97836.97;;;7.91;88.07
73151;BME280;61354;50.758;6.106;2023-04-24T01:58:24;97841.44;;;8.00;87.92
73151;BME280;61354;50.758;6.106;2023-04-24T02:00:50;97841.34;;;7.92;87.34
73151;BME280;61354;50.758;6.106;2023-04-24T02:03:15;97843.63;;;7.87;88.80
73151;BME280;61354;50.758;6.106;2023-04-24T02:05:44;97840.50;;;7.88;87.57
73151;BME280;61354;50.758;6.106;2023-04-24T02:08:10;97845.97;;;7.85;88.21
73151;BME280;61354;50.758;6.106;2023-04-24T02:10:35;97836.72;;;7.73;87.87
73151;BME280;61354;50.758;6.106;2023-04-24T02:13:01;97834.38;;;7.76;88.60
73151;BME280;61354;50.758;6.106;2023-04-24T02:15:26;97848.28;;;7.83;88.29
73151;BME280;61354;50.758;6.106;2023-04-24T02:17:55;97849.47;;;7.82;88.05
73151;BME280;61354;50.758;6.106;2023-04-24T02:20:20;97844.28;;;7.77;88.17
73151;BME280;61354;50.758;6.106;2023-04-24T02:22:46;97844.28;;;7.77;88.59
73151;BME280;61354;50.758;6.106;2023-04-24T02:25:12;97839.06;;;7.71;88.61
73151;BME280;61354;50.758;6.106;2023-04-24T02:27:37;97837.16;;;7.76;88.88
73151;BME280;61354;50.758;6.106;2023-04-24T02:30:03;97842.25;;;7.73;89.44
73151;BME280;61354;50.758;6.106;2023-04-24T02:32:28;97839.84;;;7.72;89.02
73151;BME280;61354;50.758;6.106;2023-04-24T02:34:56;97843.81;;;7.75;89.27
73151;BME280;61354;50.758;6.106;2023-04-24T02:37:21;97849.34;;;7.75;89.31
73151;BME280;61354;50.758;6.106;2023-04-24T02:39:47;97848.09;;;7.68;89.56
73151;BME280;61354;50.758;6.106;2023-04-24T02:42:12;97837.16;;;7.76;89.26
73151;BME280;61354;50.758;6.106;2023-04-24T02:44:38;97841.84;;;7.75;89.80
73151;BME280;61354;50.758;6.106;2023-04-24T02:47:03;97840.16;;;7.67;89.58
73151;BME280;61354;50.758;6.106;2023-04-24T02:49:29;97840.16;;;7.67;90.04
73151;BME280;61354;50.758;6.106;2023-04-24T02:51:55;97840.97;;;7.67;89.86
73151;BME280;61354;50.758;6.106;2023-04-24T02:54:20;97841.72;;;7.64;90.53
73151;BME280;61354;50.758;6.106;2023-04-24T02:56:46;97838.22;;;7.67;90.59
73151;BME280;61354;50.758;6.106;2023-04-24T02:59:11;97840.97;;;7.67;90.33
73151;BME280;61354;50.758;6.106;2023-04-24T03:01:37;97842.13;;;7.66;90.29
73151;BME280;61354;50.758;6.106;2023-04-24T03:04:02;97852.75;;;7.64;90.14
73151;BME280;61354;50.758;6.106;2023-04-24T03:06:28;97846.06;;;7.65;90.76
73151;BME280;61354;50.758;6.106;2023-04-24T03:08:56;97843.97;;;7.59;91.30
73151;BME280;61354;50.758;6.106;2023-04-24T03:11:22;97851.91;;;7.60;91.00
73151;BME280;61354;50.758;6.106;2023-04-24T03:13:47;97852.63;;;7.57;91.68
73151;BME280;61354;50.758;6.106;2023-04-24T03:16:13;97856.69;;;7.63;91.67
73151;BME280;61354;50.758;6.106;2023-04-24T03:18:38;97858.53;;;7.56;91.76
73151;BME280;61354;50.758;6.106;2023-04-24T03:21:04;97847.84;;;7.54;92.80
73151;BME280;61354;50.758;6.106;2023-04-24T03:23:30;97847.09;;;7.57;92.79
73151;BME280;61354;50.758;6.106;2023-04-24T03:25:55;97851.84;;;7.57;92.91
73151;BME280;61354;50.758;6.106;2023-04-24T03:28:21;97846.03;;;7.39;93.27
73151;BME280;61354;50.758;6.106;2023-04-24T03:30:46;97857.16;;;7.46;93.37
73151;BME280;61354;50.758;6.106;2023-04-24T03:33:12;97854.31;;;7.39;93.30
73151;BME280;61354;50.758;6.106;2023-04-24T03:35:38;97857.84;;;7.39;94.17
73151;BME280;61354;50.758;6.106;2023-04-24T03:38:03;97856.03;;;7.47;93.75
73151;BME280;61354;50.758;6.106;2023-04-24T03:40:30;97861.63;;;7.51;94.03
73151;BME280;61354;50.758;6.106;2023-04-24T03:42:55;97853.59;;;7.45;93.86
73151;BME280;61354;50.758;6.106;2023-04-24T03:45:21;97850.06;;;7.45;94.06
73151;BME280;61354;50.758;6.106;2023-04-24T03:47:46;97845.09;;;7.31;94.64
73151;BME280;61354;50.758;6.106;2023-04-24T03:50:12;97859.38;;;7.37;94.60
73151;BME280;61354;50.758;6.106;2023-04-24T03:52:38;97848.28;;;7.33;94.32
73151;BME280;61354;50.758;6.106;2023-04-24T03:55:03;97836.00;;;7.31;94.56
73151;BME280;61354;50.758;6.106;2023-04-24T03:57:29;97852.88;;;7.26;95.06
73151;BME280;61354;50.758;6.106;2023-04-24T03:59:55;97860.44;;;7.29;94.82
73151;BME280;61354;50.758;6.106;2023-04-24T04:02:20;97858.09;;;7.31;95.76
73151;BME280;61354;50.758;6.106;2023-04-24T04:04:46;97855.69;;;7.29;95.76
73151;BME280;61354;50.758;6.106;2023-04-24T04:07:11;97851.09;;;7.37;95.68
73151;BME280;61354;50.758;6.106;2023-04-24T04:09:38;97851.41;;;7.32;97.56
73151;BME280;61354;50.758;6.106;2023-04-24T04:12:03;97848.09;;;7.22;98.09
73151;BME280;61354;50.758;6.106;2023-04-24T04:14:29;97853.09;;;7.17;99.35
73151;BME280;61354;50.758;6.106;2023-04-24T04:16:55;97861.75;;;7.15;99.50
73151;BME280;61354;50.758;6.106;2023-04-24T04:19:20;97859.81;;;7.16;99.67
73151;BME280;61354;50.758;6.106;2023-04-24T04:21:46;97870.13;;;7.19;99.59
73151;BME280;61354;50.758;6.106;2023-04-24T04:24:17;97868.56;;;7.21;100.00
73151;BME280;61354;50.758;6.106;2023-04-24T04:26:43;97860.19;;;7.14;100.00
73151;BME280;61354;50.758;6.106;2023-04-24T04:29:11;97867.84;;;7.25;100.00
73151;BME280;61354;50.758;6.106;2023-04-24T04:31:37;97873.28;;;7.21;100.00
73151;BME280;61354;50.758;6.106;2023-04-24T04:34:02;97877.94;;;7.17;100.00
73151;BME280;61354;50.758;6.106;2023-04-24T04:36:28;97873.47;;;7.09;100.00
73151;BME280;61354;50.758;6.106;2023-04-24T04:38:54;97886.34;;;7.01;100.00
73151;BME280;61354;50.758;6.106;2023-04-24T04:41:20;97872.31;;;7.10;100.00
73151;BME280;61354;50.758;6.106;2023-04-24T04:43:45;97884.72;;;7.00;100.00
73151;BME280;61354;50.758;6.106;2023-04-24T04:46:12;97885.59;;;7.04;100.00
73151;BME280;61354;50.758;6.106;2023-04-24T04:48:38;97887.94;;;7.02;100.00
73151;BME280;61354;50.758;6.106;2023-04-24T04:51:04;97881.56;;;6.98;100.00
73151;BME280;61354;50.758;6.106;2023-04-24T04:53:30;97888.66;;;6.99;100.00
73151;BME280;61354;50.758;6.106;2023-04-24T04:55:56;97894.19;;;6.99;100.00
73151;BME280;61354;50.758;6.106;2023-04-24T04:58:22;97894.91;;;6.96;100.00
73151;BME280;61354;50.758;6.106;2023-04-24T05:00:47;97895.88;;;6.84;100.00
73151;BME280;61354;50.758;6.106;2023-04-24T05:03:13;97898.34;;;6.89;100.00
73151;BME280;61354;50.758;6.106;2023-04-24T05:05:39;97912.06;;;6.86;100.00
73151;BME280;61354;50.758;6.106;2023-04-24T05:08:07;97913.34;;;6.92;100.00
73151;BME280;61354;50.758;6.106;2023-04-24T05:10:33;97915.41;;;6.95;100.00
73151;BME280;61354;50.758;6.106;2023-04-24T05:12:59;97919.25;;;6.90;100.00
73151;BME280;61354;50.758;6.106;2023-04-24T05:15:25;97901.03;;;6.86;100.00
73151;BME280;61354;50.758;6.106;2023-04-24T05:17:51;97912.78;;;6.83;100.00
73151;BME280;61354;50.758;6.106;2023-04-24T05:20:16;97921.56;;;6.88;100.00
73151;BME280;61354;50.758;6.106;2023-04-24T05:22:42;97919.16;;;6.67;100.00
73151;BME280;61354;50.758;6.106;2023-04-24T05:25:08;97923.09;;;6.86;100.00
73151;BME280;61354;50.758;6.106;2023-04-24T05:27:34;97932.53;;;6.85;100.00
73151;BME280;61354;50.758;6.106;2023-04-24T05:30:00;97930.94;;;6.84;100.00
73151;BME280;61354;50.758;6.106;2023-04-24T05:32:25;97932.53;;;6.85;100.00
73151;BME280;61354;50.758;6.106;2023-04-24T05:34:52;97938.06;;;6.85;100.00
73151;BME280;61354;50.758;6.106;2023-04-24T05:37:17;97939.94;;;6.81;100.00
73151;BME280;61354;50.758;6.106;2023-04-24T05:39:43;97951.53;;;6.70;100.00
73151;BME280;61354;50.758;6.106;2023-04-24T05:42:09;97950.94;;;6.61;100.00
73151;BME280;61354;50.758;6.106;2023-04-24T05:44:34;97951.25;;;6.56;100.00
73151;BME280;61354;50.758;6.106;2023-04-24T05:47:00;97966.25;;;6.59;100.00
73151;BME280;61354;50.758;6.106;2023-04-24T05:49:26;97973.03;;;6.61;100.00
73151;BME280;61354;50.758;6.106;2023-04-24T05:51:51;97969.97;;;6.66;100.00
73151;BME280;61354;50.758;6.106;2023-04-24T05:54:17;97959.97;;;6.78;100.00
73151;BME280;61354;50.758;6.106;2023-04-24T05:56:42;97961.50;;;6.75;100.00
73151;BME280;61354;50.758;6.106;2023-04-24T05:59:08;97958.16;;;6.66;100.00
73151;BME280;61354;50.758;6.106;2023-04-24T06:01:36;97964.63;;;6.73;100.00
73151;BME280;61354;50.758;6.106;2023-04-24T06:04:03;97967.81;;;6.76;100.00
73151;BME280;61354;50.758;6.106;2023-04-24T06:06:29;97966.94;;;6.71;100.00
73151;BME280;61354;50.758;6.106;2023-04-24T06:08:54;97980.84;;;6.94;100.00
73151;BME280;61354;50.758;6.106;2023-04-24T06:11:20;97993.03;;;6.93;100.00
73151;BME280;61354;50.758;6.106;2023-04-24T06:13:46;97989.00;;;6.71;100.00
73151;BME280;61354;50.758;6.106;2023-04-24T06:16:12;97985.81;;;6.69;100.00
73151;BME280;61354;50.758;6.106;2023-04-24T06:18:37;97991.16;;;6.62;100.00
73151;BME280;61354;50.758;6.106;2023-04-24T06:21:03;97991.25;;;6.66;100.00
73151;BME280;61354;50.758;6.106;2023-04-24T06:23:29;97995.38;;;6.76;100.00
73151;BME280;61354;50.758;6.106;2023-04-24T06:25:57;97995.38;;;6.76;100.00
73151;BME280;61354;50.758;6.106;2023-04-24T06:28:23;98001.19;;;6.70;100.00
73151;BME280;61354;50.758;6.106;2023-04-24T06:30:48;97999.53;;;6.66;100.00
73151;BME280;61354;50.758;6.106;2023-04-24T06:33:14;97999.91;;;6.64;100.00
73151;BME280;61354;50.758;6.106;2023-04-24T06:35:40;98000.78;;;6.68;100.00
73151;BME280;61354;50.758;6.106;2023-04-24T06:38:05;98012.94;;;6.67;100.00
73151;BME280;61354;50.758;6.106;2023-04-24T06:40:31;98019.00;;;6.73;100.00
73151;BME280;61354;50.758;6.106;2023-04-24T06:42:57;98016.25;;;6.73;100.00
73151;BME280;61354;50.758;6.106;2023-04-24T06:45:25;98007.88;;;6.69;100.00
73151;BME280;61354;50.758;6.106;2023-04-24T06:47:51;98024.09;;;6.55;100.00
73151;BME280;61354;50.758;6.106;2023-04-24T06:50:16;98023.38;;;6.58;100.00
73151;BME280;61354;50.758;6.106;2023-04-24T06:52:42;98037.72;;;6.48;100.00
73151;BME280;61354;50.758;6.106;2023-04-24T06:55:08;98040.13;;;6.50;100.00
73151;BME280;61354;50.758;6.106;2023-04-24T06:57:34;98042.97;;;6.53;100.00
73151;BME280;61354;50.758;6.106;2023-04-24T06:59:59;98054.38;;;6.52;100.00
73151;BME280;61354;50.758;6.106;2023-04-24T07:02:25;98057.84;;;6.48;100.00
73151;BME280;61354;50.758;6.106;2023-04-24T07:04:50;98056.75;;;6.37;100.00
73151;BME280;61354;50.758;6.106;2023-04-24T07:07:16;98063.88;;;6.38;100.00
73151;BME280;61354;50.758;6.106;2023-04-24T07:09:42;98063.16;;;6.41;100.00
73151;BME280;61354;50.758;6.106;2023-04-24T07:12:10;98071.81;;;6.40;100.00
73151;BME280;61354;50.758;6.106;2023-04-24T07:14:37;98064.31;;;6.25;100.00
73151;BME280;61354;50.758;6.106;2023-04-24T07:17:04;98077.84;;;6.30;100.00
73151;BME280;61354;50.758;6.106;2023-04-24T07:19:30;98078.19;;;6.28;100.00
73151;BME280;61354;50.758;6.106;2023-04-24T07:21:55;98076.44;;;6.36;100.00
73151;BME280;61354;50.758;6.106;2023-04-24T07:24:24;98085.31;;;6.29;100.00
73151;BME280;61354;50.758;6.106;2023-04-24T07:26:51;98081.84;;;6.32;100.00
73151;BME280;61354;50.758;6.106;2023-04-24T07:29:17;98103.81;;;6.29;100.00
73151;BME280;61354;50.758;6.106;2023-04-24T07:31:42;98107.47;;;6.33;100.00
73151;BME280;61354;50.758;6.106;2023-04-24T07:34:08;98120.16;;;6.21;100.00
73151;BME280;61354;50.758;6.106;2023-04-24T07:36:34;98124.97;;;6.25;100.00
73151;BME280;61354;50.758;6.106;2023-04-24T07:38:59;98139.91;;;6.23;100.00
73151;BME280;61354;50.758;6.106;2023-04-24T07:41:25;98146.84;;;6.17;100.00
73151;BME280;61354;50.758;6.106;2023-04-24T07:43:52;98140.88;;;6.15;100.00
73151;BME280;61354;50.758;6.106;2023-04-24T07:46:19;98157.31;;;6.12;100.00
73151;BME280;61354;50.758;6.106;2023-04-24T07:48:45;98151.59;;;6.05;100.00
73151;BME280;61354;50.758;6.106;2023-04-24T07:51:14;98157.84;;;6.17;100.00
73151;BME280;61354;50.758;6.106;2023-04-24T07:53:40;98155.72;;;6.11;100.00
73151;BME280;61354;50.758;6.106;2023-04-24T07:56:06;98163.31;;;6.14;100.00
73151;BME280;61354;50.758;6.106;2023-04-24T07:58:32;98166.38;;;6.12;100.00
73151;BME280;61354;50.758;6.106;2023-04-24T08:00:58;98165.69;;;6.15;100.00
73151;BME280;61354;50.758;6.106;2023-04-24T08:03:23;98166.59;;;6.19;100.00
73151;BME280;61354;50.758;6.106;2023-04-24T08:05:50;98170.78;;;6.29;100.00
73151;BME280;61354;50.758;6.106;2023-04-24T08:08:16;98180.00;;;6.21;100.00
73151;BME280;61354;50.758;6.106;2023-04-24T08:10:42;98179.41;;;6.28;100.00
73151;BME280;61354;50.758;6.106;2023-04-24T08:13:08;98184.94;;;6.28;100.00
73151;BME280;61354;50.758;6.106;2023-04-24T08:15:33;98183.78;;;6.44;100.00
73151;BME280;61354;50.758;6.106;2023-04-24T08:17:59;98183.19;;;6.51;100.00
73151;BME280;61354;50.758;6.106;2023-04-24T08:20:25;98188.84;;;6.27;100.00
73151;BME280;61354;50.758;6.106;2023-04-24T08:22:51;98189.22;;;6.41;100.00
73151;BME280;61354;50.758;6.106;2023-04-24T08:25:16;98195.03;;;6.52;100.00
73151;BME280;61354;50.758;6.106;2023-04-24T08:27:43;98197.50;;;6.57;100.00
73151;BME280;61354;50.758;6.106;2023-04-24T08:30:09;98209.78;;;6.59;100.00
73151;BME280;61354;50.758;6.106;2023-04-24T08:32:36;98212.63;;;6.63;100.00
73151;BME280;61354;50.758;6.106;2023-04-24T08:35:01;98222.75;;;6.59;100.00
73151;BME280;61354;50.758;6.106;2023-04-24T08:37:27;98225.81;;;6.69;100.00
73151;BME280;61354;50.758;6.106;2023-04-24T08:39:53;98215.94;;;6.68;100.00
73151;BME280;61354;50.758;6.106;2023-04-24T08:42:19;98230.28;;;6.74;100.00
73151;BME280;61354;50.758;6.106;2023-04-24T08:44:46;98238.81;;;6.69;100.00
73151;BME280;61354;50.758;6.106;2023-04-24T08:47:12;98233.03;;;6.74;100.00
73151;BME280;61354;50.758;6.106;2023-04-24T08:49:38;98241.00;;;6.63;100.00
73151;BME280;61354;50.758;6.106;2023-04-24T08:52:07;98251.34;;;6.66;100.00
73151;BME280;61354;50.758;6.106;2023-04-24T08:54:36;98246.81;;;6.74;100.00
73151;BME280;61354;50.758;6.106;2023-04-24T08:57:03;98250.53;;;6.66;100.00
73151;BME280;61354;50.758;6.106;2023-04-24T08:59:30;98249.22;;;6.76;100.00
73151;BME280;61354;50.758;6.106;2023-04-24T09:01:57;98252.34;;;6.74;100.00
73151;BME280;61354;50.758;6.106;2023-04-24T09:04:24;98246.91;;;6.78;100.00
73151;BME280;61354;50.758;6.106;2023-04-24T09:06:51;98259.66;;;6.82;100.00
73151;BME280;61354;50.758;6.106;2023-04-24T09:09:21;98264.28;;;6.94;100.00
73151;BME280;61354;50.758;6.106;2023-04-24T09:11:49;98280.38;;;6.92;100.00
73151;BME280;61354;50.758;6.106;2023-04-24T09:14:15;98281.75;;;6.98;100.00
73151;BME280;61354;50.758;6.106;2023-04-24T09:16:42;98298.91;;;6.91;100.00
73151;BME280;61354;50.758;6.106;2023-04-24T09:19:07;98279.00;;;6.98;100.00
73151;BME280;61354;50.758;6.106;2023-04-24T09:21:34;98278.28;;;7.01;100.00
73151;BME280;61354;50.758;6.106;2023-04-24T09:24:03;98286.28;;;7.06;100.00
73151;BME280;61354;50.758;6.106;2023-04-24T09:26:30;98298.16;;;7.22;100.00
73151;BME280;61354;50.758;6.106;2023-04-24T09:28:59;98301.91;;;7.30;100.00
73151;BME280;61354;50.758;6.106;2023-04-24T09:31:27;98310.09;;;7.42;100.00
73151;BME280;61354;50.758;6.106;2023-04-24T09:34:03;98321.84;;;7.55;100.00
73151;BME280;61354;50.758;6.106;2023-04-24T09:36:33;98320.59;;;7.53;100.00
73151;BME280;61354;50.758;6.106;2023-04-24T09:39:04;98318.53;;;7.50;100.00
73151;BME280;61354;50.758;6.106;2023-04-24T09:41:32;98321.75;;;7.67;100.00
73151;BME280;61354;50.758;6.106;2023-04-24T09:44:11;98321.16;;;7.78;100.00
73151;BME280;61354;50.758;6.106;2023-04-24T09:46:37;98325.81;;;7.73;100.00
73151;BME280;61354;50.758;6.106;2023-04-24T09:49:12;98337.84;;;7.81;100.00
73151;BME280;61354;50.758;6.106;2023-04-24T09:51:38;98343.66;;;7.60;100.00
73151;BME280;61354;50.758;6.106;2023-04-24T09:54:04;98341.09;;;7.52;100.00
73151;BME280;61354;50.758;6.106;2023-04-24T09:56:36;98334.91;;;7.74;100.00
73151;BME280;61354;50.758;6.106;2023-04-24T09:59:07;98337.63;;;8.06;100.00
73151;BME280;61354;50.758;6.106;2023-04-24T10:01:33;98340.09;;;8.11;100.00
73151;BME280;61354;50.758;6.106;2023-04-24T10:03:59;98347.31;;;8.15;100.00
73151;BME280;61354;50.758;6.106;2023-04-24T10:06:33;98343.53;;;8.23;100.00
73151;BME280;61354;50.758;6.106;2023-04-24T10:09:00;98348.53;;;8.53;100.00
73151;BME280;61354;50.758;6.106;2023-04-24T10:11:30;98351.72;;;8.75;100.00
73151;BME280;61354;50.758;6.106;2023-04-24T10:13:55;98351.81;;;8.78;100.00
73151;BME280;61354;50.758;6.106;2023-04-24T10:16:23;98349.13;;;8.62;100.00
73151;BME280;61354;50.758;6.106;2023-04-24T10:18:49;98348.63;;;8.76;100.00
73151;BME280;61354;50.758;6.106;2023-04-24T10:21:16;98360.19;;;9.01;100.00
73151;BME280;61354;50.758;6.106;2023-04-24T10:23:42;98356.91;;;8.76;100.00
73151;BME280;61354;50.758;6.106;2023-04-24T10:26:12;98360.44;;;9.15;100.00
73151;BME280;61354;50.758;6.106;2023-04-24T10:28:45;98359.72;;;9.18;100.00
73151;BME280;61354;50.758;6.106;2023-04-24T10:31:12;98362.97;;;8.82;98.08
73151;BME280;61354;50.758;6.106;2023-04-24T10:33:41;98366.72;;;8.54;98.96
73151;BME280;61354;50.758;6.106;2023-04-24T10:36:09;98368.63;;;8.89;99.92
73151;BME280;61354;50.758;6.106;2023-04-24T10:38:37;98377.81;;;8.74;100.00
73151;BME280;61354;50.758;6.106;2023-04-24T10:41:12;98377.53;;;8.98;100.00
73151;BME280;61354;50.758;6.106;2023-04-24T10:43:45;98372.69;;;9.14;100.00
73151;BME280;61354;50.758;6.106;2023-04-24T10:46:19;98379.41;;;8.94;98.72
73151;BME280;61354;50.758;6.106;2023-04-24T10:48:53;98381.53;;;9.01;97.95
73151;BME280;61354;50.758;6.106;2023-04-24T10:51:23;98376.00;;;9.24;97.41
73151;BME280;61354;50.758;6.106;2023-04-24T10:53:50;98374.16;;;9.08;97.50
73151;BME280;61354;50.758;6.106;2023-04-24T10:56:17;98376.56;;;9.33;99.76
73151;BME280;61354;50.758;6.106;2023-04-24T10:58:53;98384.72;;;9.22;99.26
73151;BME280;61354;50.758;6.106;2023-04-24T11:01:29;98385.53;;;9.03;99.08
73151;BME280;61354;50.758;6.106;2023-04-24T11:03:59;98396.84;;;8.75;100.00
73151;BME280;61354;50.758;6.106;2023-04-24T11:06:36;98396.25;;;8.85;100.00
73151;BME280;61354;50.758;6.106;2023-04-24T11:11:33;98410.22;;;8.73;100.00
73151;BME280;61354;50.758;6.106;2023-04-24T11:16:52;98404.41;;;8.98;100.00
73151;BME280;61354;50.758;6.106;2023-04-24T11:24:27;98416.56;;;9.78;95.61
73151;BME280;61354;50.758;6.106;2023-04-24T11:29:38;98431.72;;;9.38;92.01
73151;BME280;61354;50.758;6.106;2023-04-24T11:34:56;98429.03;;;9.45;88.42
73151;BME280;61354;50.758;6.106;2023-04-24T11:37:43;98430.53;;;9.39;87.54
73151;BME280;61354;50.758;6.106;2023-04-24T11:40:10;98425.50;;;9.67;89.39
73151;BME280;61354;50.758;6.106;2023-04-24T11:42:37;98425.00;;;9.85;87.65
73151;BME280;61354;50.758;6.106;2023-04-24T11:45:10;98434.50;;;9.84;85.32
73151;BME280;61354;50.758;6.106;2023-04-24T11:47:36;98440.56;;;9.66;84.18
73151;BME280;61354;50.758;6.106;2023-04-24T11:50:04;98441.34;;;9.67;86.16
73151;BME280;61354;50.758;6.106;2023-04-24T11:52:30;98442.28;;;9.75;85.94
73151;BME280;61354;50.758;6.106;2023-04-24T11:54:56;98449.16;;;9.61;87.60
73151;BME280;61354;50.758;6.106;2023-04-24T11:57:24;98459.97;;;9.47;85.64
73151;BME280;61354;50.758;6.106;2023-04-24T11:59:51;98455.22;;;9.48;84.43
73151;BME280;61354;50.758;6.106;2023-04-24T12:02:25;98450.22;;;9.34;82.48
73151;BME280;61354;50.758;6.106;2023-04-24T12:04:52;98460.72;;;9.44;82.73
73151;BME280;61354;50.758;6.106;2023-04-24T12:07:18;98460.06;;;9.51;82.50
73151;BME280;61354;50.758;6.106;2023-04-24T12:09:49;98468.53;;;9.61;83.23
73151;BME280;61354;50.758;6.106;2023-04-24T12:12:16;98470.66;;;9.68;83.64
73151;BME280;61354;50.758;6.106;2023-04-24T12:14:50;98465.50;;;9.66;82.98
73151;BME280;61354;50.758;6.106;2023-04-24T12:17:17;98467.41;;;9.62;84.58
73151;BME280;61354;50.758;6.106;2023-04-24T12:19:47;98474.25;;;9.49;86.92
73151;BME280;61354;50.758;6.106;2023-04-24T12:22:13;98471.31;;;9.61;86.19
73151;BME280;61354;50.758;6.106;2023-04-24T12:27:24;98466.72;;;9.69;83.58
73151;BME280;61354;50.758;6.106;2023-04-24T12:29:55;98465.84;;;9.65;81.85
73151;BME280;61354;50.758;6.106;2023-04-24T12:32:20;98471.47;;;10.14;83.07
73151;BME280;61354;50.758;6.106;2023-04-24T12:34:46;98467.19;;;10.43;80.85
73151;BME280;61354;50.758;6.106;2023-04-24T12:37:12;98469.16;;;10.69;79.21
73151;BME280;61354;50.758;6.106;2023-04-24T12:39:38;98478.22;;;10.40;76.69
73151;BME280;61354;50.758;6.106;2023-04-24T12:42:03;98469.38;;;10.57;78.76
73151;BME280;61354;50.758;6.106;2023-04-24T12:44:33;98469.00;;;10.32;77.01
73151;BME280;61354;50.758;6.106;2023-04-24T12:47:00;98481.22;;;10.28;79.70
73151;BME280;61354;50.758;6.106;2023-04-24T12:49:27;98468.88;;;10.02;76.24
73151;BME280;61354;50.758;6.106;2023-04-24T12:51:53;98474.22;;;10.14;76.59
73151;BME280;61354;50.758;6.106;2023-04-24T12:54:18;98473.38;;;10.33;75.56
73151;BME280;61354;50.758;6.106;2023-04-24T12:56:44;98484.63;;;10.44;75.89
73151;BME280;61354;50.758;6.106;2023-04-24T12:59:09;98487.41;;;10.44;75.00
73151;BME280;61354;50.758;6.106;2023-04-24T13:01:35;98484.56;;;10.37;73.86
73151;BME280;61354;50.758;6.106;2023-04-24T13:04:00;98487.75;;;10.39;74.69
73151;BME280;61354;50.758;6.106;2023-04-24T13:06:26;98502.69;;;10.31;75.01
73151;BME280;61354;50.758;6.106;2023-04-24T13:08:52;98507.59;;;10.18;71.11
73151;BME280;61354;50.758;6.106;2023-04-24T13:11:20;98500.88;;;10.19;72.23
73151;BME280;61354;50.758;6.106;2023-04-24T13:13:47;98498.88;;;10.19;71.41
73151;BME280;61354;50.758;6.106;2023-04-24T13:16:13;98497.56;;;10.33;73.86
73151;BME280;61354;50.758;6.106;2023-04-24T13:18:38;98496.31;;;10.30;72.90
73151;BME280;61354;50.758;6.106;2023-04-24T13:21:04;98492.69;;;10.53;73.84